sensor_id;sensor_type;location;lat;lon;timestamp;temperature;humidity
8832;DHT22;4452;50.756;4.472;2022-07-29T00:02:12;17.90;99.90
8832;DHT22;4452;50.756;4.472;2022-07-29T00:04:38;17.80;99.90
8832;DHT22;4452;50.756;4.472;2022-07-29T00:07:04;17.80;99.90
8832;DHT22;4452;50.756;4.472;2022-07-29T00:09:30;17.90;99.90
8832;DHT22;4452;50.756;4.472;2022-07-29T00:11:59;17.90;99.90
8832;DHT22;4452;50.756;4.472;2022-07-29T00:14:25;17.90;99.90
8832;DHT22;4452;50.756;4.472;2022-07-29T00:16:51;17.80;99.90
8832;DHT22;4452;50.756;4.472;2022-07-29T00:19:17;17.80;99.90
8832;DHT22;4452;50.756;4.472;2022-07-29T00:21:42;17.70;99.90
8832;DHT22;4452;50.756;4.472;2022-07-29T00:24:08;17.80;99.90
8832;DHT22;4452;50.756;4.472;2022-07-29T00:26:34;17.70;99.90
8832;DHT22;4452;50.756;4.472;2022-07-29T00:29:01;17.60;99.90
8832;DHT22;4452;50.756;4.472;2022-07-29T00:31:28;17.60;99.90
8832;DHT22;4452;50.756;4.472;2022-07-29T00:33:53;17.50;99.90
8832;DHT22;4452;50.756;4.472;2022-07-29T00:36:19;17.50;99.90
8832;DHT22;4452;50.756;4.472;2022-07-29T00:38:50;17.50;99.90
8832;DHT22;4452;50.756;4.472;2022-07-29T00:41:16;17.40;99.90
8832;DHT22;4452;50.756;4.472;2022-07-29T00:43:43;17.40;99.90
8832;DHT22;4452;50.756;4.472;2022-07-29T00:46:09;17.40;99.90
8832;DHT22;4452;50.756;4.472;2022-07-29T00:48:35;17.30;99.90
8832;DHT22;4452;50.756;4.472;2022-07-29T00:51:02;17.30;99.90
8832;DHT22;4452;50.756;4.472;2022-07-29T00:53:29;17.20;99.90
8832;DHT22;4452;50.756;4.472;2022-07-29T00:55:57;17.10;99.90
8832;DHT22;4452;50.756;4.472;2022-07-29T00:58:24;17.00;99.90
8832;DHT22;4452;50.756;4.472;2022-07-29T01:00:49;16.90;99.90
8832;DHT22;4452;50.756;4.472;2022-07-29T01:03:16;16.90;99.90
8832;DHT22;4452;50.756;4.472;2022-07-29T01:05:43;16.80;99.90
8832;DHT22;4452;50.756;4.472;2022-07-29T01:08:11;16.70;99.90
8832;DHT22;4452;50.756;4.472;2022-07-29T01:10:38;16.70;99.90
8832;DHT22;4452;50.756;4.472;2022-07-29T01:13:05;16.70;99.90
8832;DHT22;4452;50.756;4.472;2022-07-29T01:15:32;16.70;99.90
8832;DHT22;4452;50.756;4.472;2022-07-29T01:18:08;16.60;99.90
8832;DHT22;4452;50.756;4.472;2022-07-29T01:29:36;16.50;99.90
8832;DHT22;4452;50.756;4.472;2022-07-29T01:32:12;16.50;99.90
8832;DHT22;4452;50.756;4.472;2022-07-29T01:37:28;16.50;99.90
8832;DHT22;4452;50.756;4.472;2022-07-29T01:39:57;16.40;99.90
8832;DHT22;4452;50.756;4.472;2022-07-29T01:45:10;16.50;99.90
8832;DHT22;4452;50.756;4.472;2022-07-29T01:47:43;16.40;99.90
8832;DHT22;4452;50.756;4.472;2022-07-29T01:50:14;16.40;99.90
8832;DHT22;4452;50.756;4.472;2022-07-29T01:52:52;16.30;99.90
8832;DHT22;4452;50.756;4.472;2022-07-29T01:55:22;16.20;99.90
8832;DHT22;4452;50.756;4.472;2022-07-29T01:57:50;16.10;99.90
8832;DHT22;4452;50.756;4.472;2022-07-29T02:00:16;16.00;99.90
8832;DHT22;4452;50.756;4.472;2022-07-29T02:02:44;16.00;99.90
8832;DHT22;4452;50.756;4.472;2022-07-29T02:05:13;15.90;99.90
8832;DHT22;4452;50.756;4.472;2022-07-29T02:07:41;15.90;99.90
8832;DHT22;4452;50.756;4.472;2022-07-29T02:10:08;15.80;99.90
8832;DHT22;4452;50.756;4.472;2022-07-29T02:12:35;15.80;99.90
8832;DHT22;4452;50.756;4.472;2022-07-29T02:15:03;15.80;99.90
8832;DHT22;4452;50.756;4.472;2022-07-29T02:17:39;15.70;99.90
8832;DHT22;4452;50.756;4.472;2022-07-29T02:20:07;15.70;99.90
8832;DHT22;4452;50.756;4.472;2022-07-29T02:22:35;15.70;99.90
8832;DHT22;4452;50.756;4.472;2022-07-29T02:25:02;15.70;99.90
8832;DHT22;4452;50.756;4.472;2022-07-29T02:27:29;15.70;99.90
8832;DHT22;4452;50.756;4.472;2022-07-29T02:29:56;15.70;99.90
8832;DHT22;4452;50.756;4.472;2022-07-29T02:32:24;15.70;99.90
8832;DHT22;4452;50.756;4.472;2022-07-29T02:34:51;15.60;99.90
8832;DHT22;4452;50.756;4.472;2022-07-29T02:37:18;15.60;99.90
8832;DHT22;4452;50.756;4.472;2022-07-29T02:39:45;15.50;99.90
8832;DHT22;4452;50.756;4.472;2022-07-29T02:42:16;15.50;99.90
8832;DHT22;4452;50.756;4.472;2022-07-29T02:44:43;15.50;99.90
8832;DHT22;4452;50.756;4.472;2022-07-29T02:50:20;15.40;99.90
8832;DHT22;4452;50.756;4.472;2022-07-29T02:52:47;15.40;99.90
8832;DHT22;4452;50.756;4.472;2022-07-29T02:55:22;15.30;99.90
8832;DHT22;4452;50.756;4.472;2022-07-29T03:00:31;15.30;99.90
8832;DHT22;4452;50.756;4.472;2022-07-29T03:02:59;15.30;99.90
8832;DHT22;4452;50.756;4.472;2022-07-29T03:05:27;15.30;99.90
8832;DHT22;4452;50.756;4.472;2022-07-29T03:07:56;15.20;99.90
8832;DHT22;4452;50.756;4.472;2022-07-29T03:10:23;15.20;99.90
8832;DHT22;4452;50.756;4.472;2022-07-29T03:12:50;15.20;99.90
8832;DHT22;4452;50.756;4.472;2022-07-29T03:15:17;15.00;99.90
8832;DHT22;4452;50.756;4.472;2022-07-29T03:17:43;15.00;99.90
8832;DHT22;4452;50.756;4.472;2022-07-29T03:20:10;15.00;99.90
8832;DHT22;4452;50.756;4.472;2022-07-29T03:22:40;15.00;99.90
8832;DHT22;4452;50.756;4.472;2022-07-29T03:25:13;15.00;99.90
8832;DHT22;4452;50.756;4.472;2022-07-29T03:27:40;14.90;99.90
8832;DHT22;4452;50.756;4.472;2022-07-29T03:30:07;14.90;99.90
8832;DHT22;4452;50.756;4.472;2022-07-29T03:32:33;14.90;99.90
8832;DHT22;4452;50.756;4.472;2022-07-29T03:34:59;14.90;99.90
8832;DHT22;4452;50.756;4.472;2022-07-29T03:37:24;14.80;99.90
8832;DHT22;4452;50.756;4.472;2022-07-29T03:39:51;14.80;99.90
8832;DHT22;4452;50.756;4.472;2022-07-29T03:42:19;14.80;99.90
8832;DHT22;4452;50.756;4.472;2022-07-29T03:44:47;14.80;99.90
8832;DHT22;4452;50.756;4.472;2022-07-29T03:47:14;14.80;99.90
8832;DHT22;4452;50.756;4.472;2022-07-29T03:49:42;14.80;99.90
8832;DHT22;4452;50.756;4.472;2022-07-29T03:52:08;14.70;99.90
8832;DHT22;4452;50.756;4.472;2022-07-29T03:54:34;14.70;99.90
8832;DHT22;4452;50.756;4.472;2022-07-29T03:57:03;14.70;99.90
8832;DHT22;4452;50.756;4.472;2022-07-29T03:59:32;14.70;99.90
8832;DHT22;4452;50.756;4.472;2022-07-29T04:02:04;14.80;99.90
8832;DHT22;4452;50.756;4.472;2022-07-29T04:04:33;14.70;99.90
8832;DHT22;4452;50.756;4.472;2022-07-29T04:07:00;14.70;99.90
8832;DHT22;4452;50.756;4.472;2022-07-29T04:09:25;14.70;99.90
8832;DHT22;4452;50.756;4.472;2022-07-29T04:11:51;14.60;99.90
8832;DHT22;4452;50.756;4.472;2022-07-29T04:14:18;14.50;99.90
8832;DHT22;4452;50.756;4.472;2022-07-29T04:16:44;14.60;99.90
8832;DHT22;4452;50.756;4.472;2022-07-29T04:19:09;14.50;99.90
8832;DHT22;4452;50.756;4.472;2022-07-29T04:21:39;14.50;99.90
8832;DHT22;4452;50.756;4.472;2022-07-29T04:24:06;14.50;99.90
8832;DHT22;4452;50.756;4.472;2022-07-29T04:26:32;14.50;99.90
8832;DHT22;4452;50.756;4.472;2022-07-29T04:28:58;14.50;99.90
8832;DHT22;4452;50.756;4.472;2022-07-29T04:31:23;14.50;99.90
8832;DHT22;4452;50.756;4.472;2022-07-29T04:33:49;14.50;99.90
8832;DHT22;4452;50.756;4.472;2022-07-29T04:36:15;14.50;99.90
8832;DHT22;4452;50.756;4.472;2022-07-29T04:38:40;14.50;99.90
8832;DHT22;4452;50.756;4.472;2022-07-29T04:41:06;14.40;99.90
8832;DHT22;4452;50.756;4.472;2022-07-29T04:43:36;14.40;99.90
8832;DHT22;4452;50.756;4.472;2022-07-29T04:46:03;14.50;99.90
8832;DHT22;4452;50.756;4.472;2022-07-29T04:48:29;14.60;99.90
8832;DHT22;4452;50.756;4.472;2022-07-29T04:50:56;14.50;99.90
8832;DHT22;4452;50.756;4.472;2022-07-29T04:53:22;14.60;99.90
8832;DHT22;4452;50.756;4.472;2022-07-29T04:55:48;14.70;99.90
8832;DHT22;4452;50.756;4.472;2022-07-29T04:58:14;14.70;99.90
8832;DHT22;4452;50.756;4.472;2022-07-29T05:00:40;14.70;99.90
8832;DHT22;4452;50.756;4.472;2022-07-29T05:03:05;14.80;99.90
8832;DHT22;4452;50.756;4.472;2022-07-29T05:05:31;14.80;99.90
8832;DHT22;4452;50.756;4.472;2022-07-29T05:07:57;14.80;99.90
8832;DHT22;4452;50.756;4.472;2022-07-29T05:10:22;14.90;99.90
8832;DHT22;4452;50.756;4.472;2022-07-29T05:12:48;14.90;99.90
8832;DHT22;4452;50.756;4.472;2022-07-29T05:15:14;15.00;99.90
8832;DHT22;4452;50.756;4.472;2022-07-29T05:17:40;15.00;99.90
8832;DHT22;4452;50.756;4.472;2022-07-29T05:20:07;15.10;99.90
8832;DHT22;4452;50.756;4.472;2022-07-29T05:22:32;15.20;99.90
8832;DHT22;4452;50.756;4.472;2022-07-29T05:24:58;15.30;99.90
8832;DHT22;4452;50.756;4.472;2022-07-29T05:27:24;15.30;99.90
8832;DHT22;4452;50.756;4.472;2022-07-29T05:29:50;15.40;99.90
8832;DHT22;4452;50.756;4.472;2022-07-29T05:32:16;15.50;99.90
8832;DHT22;4452;50.756;4.472;2022-07-29T05:34:42;15.40;99.90
8832;DHT22;4452;50.756;4.472;2022-07-29T05:37:07;15.60;99.90
8832;DHT22;4452;50.756;4.472;2022-07-29T05:39:33;15.60;99.90
8832;DHT22;4452;50.756;4.472;2022-07-29T05:41:59;15.70;99.90
8832;DHT22;4452;50.756;4.472;2022-07-29T05:44:24;15.80;99.90
8832;DHT22;4452;50.756;4.472;2022-07-29T05:46:50;15.90;99.90
8832;DHT22;4452;50.756;4.472;2022-07-29T05:49:16;15.90;99.90
8832;DHT22;4452;50.756;4.472;2022-07-29T05:51:41;15.90;99.90
8832;DHT22;4452;50.756;4.472;2022-07-29T05:54:07;16.00;99.90
8832;DHT22;4452;50.756;4.472;2022-07-29T05:56:33;16.20;99.90
8832;DHT22;4452;50.756;4.472;2022-07-29T05:58:59;16.20;99.90
8832;DHT22;4452;50.756;4.472;2022-07-29T06:01:24;16.20;99.90
8832;DHT22;4452;50.756;4.472;2022-07-29T06:03:50;16.40;99.90
8832;DHT22;4452;50.756;4.472;2022-07-29T06:06:16;16.40;99.90
8832;DHT22;4452;50.756;4.472;2022-07-29T06:08:41;16.60;99.90
8832;DHT22;4452;50.756;4.472;2022-07-29T06:11:07;16.70;99.90
8832;DHT22;4452;50.756;4.472;2022-07-29T06:13:34;16.80;99.90
8832;DHT22;4452;50.756;4.472;2022-07-29T06:16:00;16.90;99.90
8832;DHT22;4452;50.756;4.472;2022-07-29T06:18:25;17.00;99.90
8832;DHT22;4452;50.756;4.472;2022-07-29T06:20:51;17.10;99.90
8832;DHT22;4452;50.756;4.472;2022-07-29T06:23:19;17.10;99.90
8832;DHT22;4452;50.756;4.472;2022-07-29T06:25:45;17.20;99.90
8832;DHT22;4452;50.756;4.472;2022-07-29T06:28:10;17.30;99.90
8832;DHT22;4452;50.756;4.472;2022-07-29T06:30:37;17.40;99.90
8832;DHT22;4452;50.756;4.472;2022-07-29T06:33:02;17.50;99.90
8832;DHT22;4452;50.756;4.472;2022-07-29T06:35:28;17.60;99.90
8832;DHT22;4452;50.756;4.472;2022-07-29T06:37:54;17.60;99.90
8832;DHT22;4452;50.756;4.472;2022-07-29T06:40:20;17.70;99.90
8832;DHT22;4452;50.756;4.472;2022-07-29T06:43:04;17.80;99.90
8832;DHT22;4452;50.756;4.472;2022-07-29T06:45:33;17.90;99.90
8832;DHT22;4452;50.756;4.472;2022-07-29T06:47:59;18.00;99.90
8832;DHT22;4452;50.756;4.472;2022-07-29T06:50:25;18.20;99.90
8832;DHT22;4452;50.756;4.472;2022-07-29T06:52:50;18.50;99.90
8832;DHT22;4452;50.756;4.472;2022-07-29T06:55:16;18.60;99.90
8832;DHT22;4452;50.756;4.472;2022-07-29T06:57:45;18.80;99.90
8832;DHT22;4452;50.756;4.472;2022-07-29T07:00:11;18.50;99.90
8832;DHT22;4452;50.756;4.472;2022-07-29T07:02:37;18.60;99.90
8832;DHT22;4452;50.756;4.472;2022-07-29T07:05:03;18.50;99.90
8832;DHT22;4452;50.756;4.472;2022-07-29T07:07:30;18.80;99.90
8832;DHT22;4452;50.756;4.472;2022-07-29T07:09:56;19.10;99.90
8832;DHT22;4452;50.756;4.472;2022-07-29T07:12:21;19.30;99.90
8832;DHT22;4452;50.756;4.472;2022-07-29T07:14:47;19.60;99.90
8832;DHT22;4452;50.756;4.472;2022-07-29T07:17:13;20.10;99.90
8832;DHT22;4452;50.756;4.472;2022-07-29T07:19:39;19.70;99.90
8832;DHT22;4452;50.756;4.472;2022-07-29T07:22:04;20.10;99.90
8832;DHT22;4452;50.756;4.472;2022-07-29T07:24:30;20.20;99.90
8832;DHT22;4452;50.756;4.472;2022-07-29T07:26:56;19.90;99.90
8832;DHT22;4452;50.756;4.472;2022-07-29T07:29:21;19.60;99.90
8832;DHT22;4452;50.756;4.472;2022-07-29T07:31:47;19.90;99.90
8832;DHT22;4452;50.756;4.472;2022-07-29T07:34:13;20.10;99.90
8832;DHT22;4452;50.756;4.472;2022-07-29T07:36:38;20.30;99.90
8832;DHT22;4452;50.756;4.472;2022-07-29T07:39:04;20.20;99.90
8832;DHT22;4452;50.756;4.472;2022-07-29T07:41:30;20.30;99.90
8832;DHT22;4452;50.756;4.472;2022-07-29T07:43:56;20.20;99.90
8832;DHT22;4452;50.756;4.472;2022-07-29T07:46:22;20.40;99.90
8832;DHT22;4452;50.756;4.472;2022-07-29T07:48:47;20.60;99.90
8832;DHT22;4452;50.756;4.472;2022-07-29T07:51:13;20.80;99.90
8832;DHT22;4452;50.756;4.472;2022-07-29T07:53:39;20.90;99.90
8832;DHT22;4452;50.756;4.472;2022-07-29T07:56:05;20.90;99.90
8832;DHT22;4452;50.756;4.472;2022-07-29T07:58:32;20.90;99.90
8832;DHT22;4452;50.756;4.472;2022-07-29T08:01:00;20.50;99.90
8832;DHT22;4452;50.756;4.472;2022-07-29T08:03:25;20.30;99.90
8832;DHT22;4452;50.756;4.472;2022-07-29T08:05:51;20.30;99.90
8832;DHT22;4452;50.756;4.472;2022-07-29T08:08:17;20.60;99.90
8832;DHT22;4452;50.756;4.472;2022-07-29T08:10:43;20.60;99.90
8832;DHT22;4452;50.756;4.472;2022-07-29T08:13:18;20.90;99.90
8832;DHT22;4452;50.756;4.472;2022-07-29T08:15:44;20.60;99.90
8832;DHT22;4452;50.756;4.472;2022-07-29T08:18:12;20.90;99.90
8832;DHT22;4452;50.756;4.472;2022-07-29T08:20:38;21.20;99.90
8832;DHT22;4452;50.756;4.472;2022-07-29T08:23:06;21.50;99.90
8832;DHT22;4452;50.756;4.472;2022-07-29T08:25:35;21.30;99.90
8832;DHT22;4452;50.756;4.472;2022-07-29T08:28:01;21.30;99.90
8832;DHT22;4452;50.756;4.472;2022-07-29T08:30:26;21.20;99.90
8832;DHT22;4452;50.756;4.472;2022-07-29T08:32:52;21.60;99.90
8832;DHT22;4452;50.756;4.472;2022-07-29T08:35:19;21.80;99.90
8832;DHT22;4452;50.756;4.472;2022-07-29T08:37:45;21.60;99.90
8832;DHT22;4452;50.756;4.472;2022-07-29T08:40:11;21.70;99.90
8832;DHT22;4452;50.756;4.472;2022-07-29T08:42:37;21.80;99.90
8832;DHT22;4452;50.756;4.472;2022-07-29T08:45:04;21.50;99.90
8832;DHT22;4452;50.756;4.472;2022-07-29T08:47:30;21.80;99.90
8832;DHT22;4452;50.756;4.472;2022-07-29T08:49:55;22.00;99.90
8832;DHT22;4452;50.756;4.472;2022-07-29T08:52:24;22.20;99.90
8832;DHT22;4452;50.756;4.472;2022-07-29T08:54:52;22.30;99.90
8832;DHT22;4452;50.756;4.472;2022-07-29T08:57:19;22.10;99.90
8832;DHT22;4452;50.756;4.472;2022-07-29T08:59:46;22.20;99.90
8832;DHT22;4452;50.756;4.472;2022-07-29T09:02:22;22.30;99.90
8832;DHT22;4452;50.756;4.472;2022-07-29T09:04:48;22.50;99.90
8832;DHT22;4452;50.756;4.472;2022-07-29T09:07:15;22.70;99.90
8832;DHT22;4452;50.756;4.472;2022-07-29T09:09:42;22.50;99.90
8832;DHT22;4452;50.756;4.472;2022-07-29T09:12:10;22.70;99.90
8832;DHT22;4452;50.756;4.472;2022-07-29T09:14:39;22.70;99.90
8832;DHT22;4452;50.756;4.472;2022-07-29T09:17:06;22.70;99.90
8832;DHT22;4452;50.756;4.472;2022-07-29T09:19:34;22.80;99.90
8832;DHT22;4452;50.756;4.472;2022-07-29T09:22:02;22.90;99.90
8832;DHT22;4452;50.756;4.472;2022-07-29T09:24:45;23.10;99.90
8832;DHT22;4452;50.756;4.472;2022-07-29T09:27:18;23.00;99.90
8832;DHT22;4452;50.756;4.472;2022-07-29T09:29:45;23.00;99.90
8832;DHT22;4452;50.756;4.472;2022-07-29T09:32:11;22.90;99.90
8832;DHT22;4452;50.756;4.472;2022-07-29T09:34:37;23.10;99.90
8832;DHT22;4452;50.756;4.472;2022-07-29T09:37:03;23.10;99.90
8832;DHT22;4452;50.756;4.472;2022-07-29T09:39:32;23.20;99.90
8832;DHT22;4452;50.756;4.472;2022-07-29T09:42:01;23.20;99.90
8832;DHT22;4452;50.756;4.472;2022-07-29T09:44:44;23.40;99.90
8832;DHT22;4452;50.756;4.472;2022-07-29T09:47:10;23.40;99.90
8832;DHT22;4452;50.756;4.472;2022-07-29T09:49:56;23.40;99.90
8832;DHT22;4452;50.756;4.472;2022-07-29T09:52:30;23.40;99.90
8832;DHT22;4452;50.756;4.472;2022-07-29T09:55:09;23.30;99.90
8832;DHT22;4452;50.756;4.472;2022-07-29T09:57:35;23.40;99.90
8832;DHT22;4452;50.756;4.472;2022-07-29T10:00:13;23.50;99.90
8832;DHT22;4452;50.756;4.472;2022-07-29T10:02:42;23.50;99.90
8832;DHT22;4452;50.756;4.472;2022-07-29T10:05:26;23.60;99.90
8832;DHT22;4452;50.756;4.472;2022-07-29T10:07:57;23.80;99.90
8832;DHT22;4452;50.756;4.472;2022-07-29T10:10:31;24.30;99.90
8832;DHT22;4452;50.756;4.472;2022-07-29T10:13:02;23.90;99.90
8832;DHT22;4452;50.756;4.472;2022-07-29T10:15:30;24.10;99.90
8832;DHT22;4452;50.756;4.472;2022-07-29T10:17:58;24.10;99.90
8832;DHT22;4452;50.756;4.472;2022-07-29T10:20:25;24.10;99.90
8832;DHT22;4452;50.756;4.472;2022-07-29T10:22:52;24.20;99.90
8832;DHT22;4452;50.756;4.472;2022-07-29T10:25:19;24.20;99.90
8832;DHT22;4452;50.756;4.472;2022-07-29T10:27:46;24.40;99.90
8832;DHT22;4452;50.756;4.472;2022-07-29T10:30:15;24.60;99.90
8832;DHT22;4452;50.756;4.472;2022-07-29T10:46:24;24.80;99.90
8832;DHT22;4452;50.756;4.472;2022-07-29T10:49:14;24.90;99.90
8832;DHT22;4452;50.756;4.472;2022-07-29T10:52:09;25.10;99.90
8832;DHT22;4452;50.756;4.472;2022-07-29T10:57:13;25.50;99.90
8832;DHT22;4452;50.756;4.472;2022-07-29T10:59:40;25.20;99.90
8832;DHT22;4452;50.756;4.472;2022-07-29T11:05:06;25.20;99.90
8832;DHT22;4452;50.756;4.472;2022-07-29T11:07:34;25.40;99.90
8832;DHT22;4452;50.756;4.472;2022-07-29T11:15:10;25.70;99.90
8832;DHT22;4452;50.756;4.472;2022-07-29T11:20:40;26.00;99.90
8832;DHT22;4452;50.756;4.472;2022-07-29T11:23:32;26.20;99.90
8832;DHT22;4452;50.756;4.472;2022-07-29T11:26:18;26.80;99.90
8832;DHT22;4452;50.756;4.472;2022-07-29T11:37:19;26.40;99.90
8832;DHT22;4452;50.756;4.472;2022-07-29T11:45:08;25.30;99.90
8832;DHT22;4452;50.756;4.472;2022-07-29T11:50:13;26.10;99.90
8832;DHT22;4452;50.756;4.472;2022-07-29T11:52:47;25.80;99.90
8832;DHT22;4452;50.756;4.472;2022-07-29T11:55:21;26.70;99.90
8832;DHT22;4452;50.756;4.472;2022-07-29T11:57:56;26.90;99.90
8832;DHT22;4452;50.756;4.472;2022-07-29T12:00:24;26.70;99.90
8832;DHT22;4452;50.756;4.472;2022-07-29T12:02:50;26.70;99.90
8832;DHT22;4452;50.756;4.472;2022-07-29T12:05:16;27.00;99.90
8832;DHT22;4452;50.756;4.472;2022-07-29T12:07:42;26.80;99.90
8832;DHT22;4452;50.756;4.472;2022-07-29T12:10:08;27.20;99.90
8832;DHT22;4452;50.756;4.472;2022-07-29T12:12:34;27.60;99.90
8832;DHT22;4452;50.756;4.472;2022-07-29T12:15:14;28.20;99.70
8832;DHT22;4452;50.756;4.472;2022-07-29T12:17:40;27.50;99.40
8832;DHT22;4452;50.756;4.472;2022-07-29T12:20:07;27.70;99.80
8832;DHT22;4452;50.756;4.472;2022-07-29T12:22:38;27.20;99.30
8832;DHT22;4452;50.756;4.472;2022-07-29T12:25:06;27.30;99.90
8832;DHT22;4452;50.756;4.472;2022-07-29T12:27:33;27.20;99.80
8832;DHT22;4452;50.756;4.472;2022-07-29T12:30:01;27.90;99.90
8832;DHT22;4452;50.756;4.472;2022-07-29T12:32:38;27.70;98.60
8832;DHT22;4452;50.756;4.472;2022-07-29T12:35:10;28.00;99.80
8832;DHT22;4452;50.756;4.472;2022-07-29T12:37:38;28.30;98.50
8832;DHT22;4452;50.756;4.472;2022-07-29T12:40:05;28.20;98.10
8832;DHT22;4452;50.756;4.472;2022-07-29T12:42:31;27.60;98.40
8832;DHT22;4452;50.756;4.472;2022-07-29T12:44:57;27.80;99.40
8832;DHT22;4452;50.756;4.472;2022-07-29T12:47:23;27.20;99.90
8832;DHT22;4452;50.756;4.472;2022-07-29T12:49:50;27.70;98.30
8832;DHT22;4452;50.756;4.472;2022-07-29T12:52:33;27.60;97.60
8832;DHT22;4452;50.756;4.472;2022-07-29T12:54:59;27.80;96.80
8832;DHT22;4452;50.756;4.472;2022-07-29T12:57:26;27.60;97.00
8832;DHT22;4452;50.756;4.472;2022-07-29T13:00:06;27.50;96.60
8832;DHT22;4452;50.756;4.472;2022-07-29T13:02:40;27.30;98.40
8832;DHT22;4452;50.756;4.472;2022-07-29T13:05:08;29.10;95.80
8832;DHT22;4452;50.756;4.472;2022-07-29T13:07:35;29.20;95.90
8832;DHT22;4452;50.756;4.472;2022-07-29T13:10:19;29.70;95.30
8832;DHT22;4452;50.756;4.472;2022-07-29T13:13:08;29.00;95.90
8832;DHT22;4452;50.756;4.472;2022-07-29T13:15:36;28.70;94.90
8832;DHT22;4452;50.756;4.472;2022-07-29T13:18:02;28.80;95.80
8832;DHT22;4452;50.756;4.472;2022-07-29T13:20:29;29.10;94.40
8832;DHT22;4452;50.756;4.472;2022-07-29T13:22:56;28.60;94.90
8832;DHT22;4452;50.756;4.472;2022-07-29T13:25:30;27.80;95.30
8832;DHT22;4452;50.756;4.472;2022-07-29T13:27:57;28.60;96.00
8832;DHT22;4452;50.756;4.472;2022-07-29T13:30:23;27.80;95.40
8832;DHT22;4452;50.756;4.472;2022-07-29T13:32:51;27.20;95.50
8832;DHT22;4452;50.756;4.472;2022-07-29T13:35:17;27.00;96.90
8832;DHT22;4452;50.756;4.472;2022-07-29T13:37:43;27.30;96.30
8832;DHT22;4452;50.756;4.472;2022-07-29T13:40:10;27.00;97.10
8832;DHT22;4452;50.756;4.472;2022-07-29T13:42:37;27.00;97.10
8832;DHT22;4452;50.756;4.472;2022-07-29T13:45:03;26.90;96.30
8832;DHT22;4452;50.756;4.472;2022-07-29T13:47:30;27.00;96.60
8832;DHT22;4452;50.756;4.472;2022-07-29T13:49:55;26.80;96.50
8832;DHT22;4452;50.756;4.472;2022-07-29T13:52:21;26.30;97.10
8832;DHT22;4452;50.756;4.472;2022-07-29T13:54:47;26.70;96.80
8832;DHT22;4452;50.756;4.472;2022-07-29T13:57:14;26.60;98.20
8832;DHT22;4452;50.756;4.472;2022-07-29T13:59:40;27.50;97.20
8832;DHT22;4452;50.756;4.472;2022-07-29T14:02:08;29.20;95.80
8832;DHT22;4452;50.756;4.472;2022-07-29T14:04:34;28.10;95.30
8832;DHT22;4452;50.756;4.472;2022-07-29T14:07:00;28.00;95.40
8832;DHT22;4452;50.756;4.472;2022-07-29T14:09:26;28.50;96.20
8832;DHT22;4452;50.756;4.472;2022-07-29T14:11:52;29.70;94.80
8832;DHT22;4452;50.756;4.472;2022-07-29T14:14:19;30.00;94.20
8832;DHT22;4452;50.756;4.472;2022-07-29T14:16:44;28.90;93.60
8832;DHT22;4452;50.756;4.472;2022-07-29T14:19:10;30.10;93.60
8832;DHT22;4452;50.756;4.472;2022-07-29T14:21:37;30.30;93.00
8832;DHT22;4452;50.756;4.472;2022-07-29T14:24:03;30.50;93.20
8832;DHT22;4452;50.756;4.472;2022-07-29T14:26:29;29.70;91.90
8832;DHT22;4452;50.756;4.472;2022-07-29T14:28:54;28.70;93.90
8832;DHT22;4452;50.756;4.472;2022-07-29T14:31:20;29.20;93.70
8832;DHT22;4452;50.756;4.472;2022-07-29T14:33:46;28.50;94.10
8832;DHT22;4452;50.756;4.472;2022-07-29T14:36:11;27.60;94.80
8832;DHT22;4452;50.756;4.472;2022-07-29T14:38:37;28.20;94.60
8832;DHT22;4452;50.756;4.472;2022-07-29T14:41:04;29.30;93.70
8832;DHT22;4452;50.756;4.472;2022-07-29T14:43:29;30.70;91.80
8832;DHT22;4452;50.756;4.472;2022-07-29T14:45:55;31.40;90.80
8832;DHT22;4452;50.756;4.472;2022-07-29T14:48:21;31.50;91.00
8832;DHT22;4452;50.756;4.472;2022-07-29T14:50:47;31.00;89.50
8832;DHT22;4452;50.756;4.472;2022-07-29T14:53:13;30.90;89.30
8832;DHT22;4452;50.756;4.472;2022-07-29T14:55:40;30.80;89.70
8832;DHT22;4452;50.756;4.472;2022-07-29T14:58:06;29.70;90.20
8832;DHT22;4452;50.756;4.472;2022-07-29T15:00:32;28.40;92.10
8832;DHT22;4452;50.756;4.472;2022-07-29T15:02:59;30.00;90.10
8832;DHT22;4452;50.756;4.472;2022-07-29T15:05:26;31.20;87.30
8832;DHT22;4452;50.756;4.472;2022-07-29T15:07:52;32.00;85.30
8832;DHT22;4452;50.756;4.472;2022-07-29T15:10:17;32.70;82.90
8832;DHT22;4452;50.756;4.472;2022-07-29T15:12:43;30.90;86.60
8832;DHT22;4452;50.756;4.472;2022-07-29T15:15:09;31.00;86.70
8832;DHT22;4452;50.756;4.472;2022-07-29T15:17:34;31.30;87.20
8832;DHT22;4452;50.756;4.472;2022-07-29T15:20:00;31.60;85.50
8832;DHT22;4452;50.756;4.472;2022-07-29T15:22:26;32.70;81.90
8832;DHT22;4452;50.756;4.472;2022-07-29T15:24:52;33.00;81.40
8832;DHT22;4452;50.756;4.472;2022-07-29T15:27:17;33.40;79.90
8832;DHT22;4452;50.756;4.472;2022-07-29T15:29:43;32.80;80.10
8832;DHT22;4452;50.756;4.472;2022-07-29T15:32:10;31.70;80.90
8832;DHT22;4452;50.756;4.472;2022-07-29T15:34:35;33.10;78.90
8832;DHT22;4452;50.756;4.472;2022-07-29T15:37:01;34.20;77.30
8832;DHT22;4452;50.756;4.472;2022-07-29T15:39:27;33.70;76.10
8832;DHT22;4452;50.756;4.472;2022-07-29T15:41:53;33.80;77.10
8832;DHT22;4452;50.756;4.472;2022-07-29T15:44:19;33.90;77.80
8832;DHT22;4452;50.756;4.472;2022-07-29T15:46:45;34.20;77.00
8832;DHT22;4452;50.756;4.472;2022-07-29T15:52:04;33.40;77.20
8832;DHT22;4452;50.756;4.472;2022-07-29T15:54:35;32.70;78.50
8832;DHT22;4452;50.756;4.472;2022-07-29T15:57:01;32.70;78.10
8832;DHT22;4452;50.756;4.472;2022-07-29T15:59:27;33.20;78.40
8832;DHT22;4452;50.756;4.472;2022-07-29T16:01:54;32.70;78.40
8832;DHT22;4452;50.756;4.472;2022-07-29T16:04:20;31.70;81.50
8832;DHT22;4452;50.756;4.472;2022-07-29T16:06:47;32.20;80.60
8832;DHT22;4452;50.756;4.472;2022-07-29T16:09:13;32.10;79.70
8832;DHT22;4452;50.756;4.472;2022-07-29T16:11:40;32.00;81.80
8832;DHT22;4452;50.756;4.472;2022-07-29T16:14:05;32.40;79.20
8832;DHT22;4452;50.756;4.472;2022-07-29T16:16:31;32.00;79.10
8832;DHT22;4452;50.756;4.472;2022-07-29T16:18:57;32.10;80.50
8832;DHT22;4452;50.756;4.472;2022-07-29T16:21:23;31.40;80.00
8832;DHT22;4452;50.756;4.472;2022-07-29T16:23:49;31.50;80.40
8832;DHT22;4452;50.756;4.472;2022-07-29T16:26:15;31.00;82.00
8832;DHT22;4452;50.756;4.472;2022-07-29T16:28:41;31.70;80.40
8832;DHT22;4452;50.756;4.472;2022-07-29T16:31:07;32.20;78.90
8832;DHT22;4452;50.756;4.472;2022-07-29T16:33:33;31.50;79.00
8832;DHT22;4452;50.756;4.472;2022-07-29T16:35:59;31.70;80.40
8832;DHT22;4452;50.756;4.472;2022-07-29T16:38:25;32.40;79.90
8832;DHT22;4452;50.756;4.472;2022-07-29T16:40:51;30.60;82.00
8832;DHT22;4452;50.756;4.472;2022-07-29T16:43:16;30.80;82.60
8832;DHT22;4452;50.756;4.472;2022-07-29T16:45:42;31.20;82.40
8832;DHT22;4452;50.756;4.472;2022-07-29T16:48:08;32.50;83.40
8832;DHT22;4452;50.756;4.472;2022-07-29T16:50:33;32.40;78.40
8832;DHT22;4452;50.756;4.472;2022-07-29T16:52:59;32.00;79.60
8832;DHT22;4452;50.756;4.472;2022-07-29T16:55:25;33.60;77.30
8832;DHT22;4452;50.756;4.472;2022-07-29T16:57:51;33.30;77.00
8832;DHT22;4452;50.756;4.472;2022-07-29T17:00:18;31.60;80.40
8832;DHT22;4452;50.756;4.472;2022-07-29T17:02:44;31.40;82.00
8832;DHT22;4452;50.756;4.472;2022-07-29T17:05:10;30.90;82.20
8832;DHT22;4452;50.756;4.472;2022-07-29T17:07:37;31.10;79.90
8832;DHT22;4452;50.756;4.472;2022-07-29T17:10:03;32.20;78.90
8832;DHT22;4452;50.756;4.472;2022-07-29T17:12:35;31.50;80.10